Time;durP1;ratioP1;P1;durP2;ratioP2;P2;SDS_P1;SDS_P2;PMS_P1;PMS_P2;Temp;Humidity;BMP_temperature;BMP_pressure;BME280_temperature;BME280_humidity;BME280_pressure;Samples;Min_cycle;Max_cycle;Signal;HPM_P1;HPM_P2
2023/07/26 00:00:37;;;;;;;16.48;8.10;;;15.00;99.90;;;;;;5051762;28;20382;-74
2023/07/26 00:03:03;;;;;;;12.80;7.20;;;15.00;99.90;;;;;;5051747;28;20041;-74
2023/07/26 00:05:30;;;;;;;14.70;7.38;;;15.00;99.90;;;;;;5051529;28;20029;-74
2023/07/26 00:07:56;;;;;;;13.82;7.13;;;15.00;99.90;;;;;;5051375;28;20071;-74
2023/07/26 00:10:21;;;;;;;11.40;7.32;;;15.00;99.90;;;;;;5051640;28;20033;-73
2023/07/26 00:12:47;;;;;;;11.18;6.93;;;15.00;99.90;;;;;;5051022;28;20208;-74
2023/07/26 00:15:13;;;;;;;13.10;7.07;;;15.00;99.90;;;;;;5050745;28;20028;-74
2023/07/26 00:17:39;;;;;;;11.65;7.28;;;15.00;99.90;;;;;;5051630;28;20029;-74
2023/07/26 00:20:05;;;;;;;10.82;7.10;;;14.90;99.90;;;;;;5050756;28;20107;-74
2023/07/26 00:22:31;;;;;;;13.80;7.45;;;14.90;99.90;;;;;;5051511;28;20116;-74
2023/07/26 00:24:59;;;;;;;14.55;8.00;;;14.90;99.90;;;;;;5050804;28;20433;-74
2023/07/26 00:27:25;;;;;;;16.55;8.05;;;14.90;99.90;;;;;;5050916;28;20110;-74
2023/07/26 00:29:51;;;;;;;14.32;7.13;;;14.90;99.90;;;;;;5051347;28;20060;-74
2023/07/26 00:32:17;;;;;;;11.85;7.15;;;14.80;99.90;;;;;;5050813;28;20053;-74
2023/07/26 00:34:42;;;;;;;16.85;8.15;;;14.80;99.90;;;;;;5051219;28;20025;-74
2023/07/26 00:37:08;;;;;;;13.98;7.75;;;14.80;99.90;;;;;;5050328;28;20168;-74
2023/07/26 00:39:34;;;;;;;10.73;6.88;;;14.70;99.90;;;;;;5051121;28;20032;-74
2023/07/26 00:41:59;;;;;;;14.95;7.00;;;14.70;99.90;;;;;;5050344;28;20032;-74
2023/07/26 00:44:25;;;;;;;15.48;7.40;;;14.70;99.90;;;;;;5051096;28;20187;-74
2023/07/26 00:46:52;;;;;;;11.98;6.97;;;14.70;99.90;;;;;;5051093;28;20090;-74
2023/07/26 00:49:17;;;;;;;11.50;7.07;;;14.70;99.90;;;;;;5048965;28;20036;-74
2023/07/26 00:51:43;;;;;;;11.00;7.07;;;14.70;99.90;;;;;;5051090;28;20029;-74
2023/07/26 00:54:09;;;;;;;12.23;7.25;;;14.70;99.90;;;;;;5050144;28;20427;-74
2023/07/26 00:56:35;;;;;;;10.25;6.32;;;14.70;99.90;;;;;;5050856;28;20350;-74
2023/07/26 00:59:02;;;;;;;10.10;6.25;;;14.70;99.90;;;;;;5048456;28;20043;-74
2023/07/26 01:01:28;;;;;;;13.55;6.35;;;14.60;99.90;;;;;;5050633;28;20029;-74
2023/07/26 01:03:54;;;;;;;11.10;6.55;;;14.60;99.90;;;;;;5051195;28;20063;-74
2023/07/26 01:06:52;;;;;;;12.05;6.55;;;14.60;99.90;;;;;;5052334;28;20156;-74
2023/07/26 01:09:34;;;;;;;10.15;6.32;;;14.60;99.90;;;;;;5048896;28;20530;-74
2023/07/26 01:12:06;;;;;;;11.07;6.25;;;14.50;99.90;;;;;;5050555;28;20470;-75
2023/07/26 01:14:32;;;;;;;14.40;5.97;;;14.50;99.90;;;;;;5050451;28;20543;-74
2023/07/26 01:16:58;;;;;;;13.20;6.60;;;14.50;99.90;;;;;;5050649;28;20069;-74
2023/07/26 01:19:24;;;;;;;9.25;5.80;;;14.50;99.90;;;;;;5049720;28;20025;-74
2023/07/26 01:21:49;;;;;;;16.42;6.93;;;14.50;99.90;;;;;;5050380;28;20340;-74
2023/07/26 01:24:15;;;;;;;11.90;6.75;;;14.50;99.90;;;;;;5050064;28;20467;-74
2023/07/26 01:26:41;;;;;;;9.70;5.90;;;14.40;99.90;;;;;;5050675;28;20447;-74
2023/07/26 01:29:07;;;;;;;11.00;6.63;;;14.40;99.90;;;;;;5049927;28;20144;-74
2023/07/26 01:31:33;;;;;;;13.73;6.57;;;14.30;99.90;;;;;;5050768;28;20036;-74
2023/07/26 01:34:00;;;;;;;9.95;5.78;;;14.30;99.90;;;;;;5051166;28;20175;-74
2023/07/26 01:36:29;;;;;;;11.45;6.20;;;14.30;99.90;;;;;;5051022;28;20017;-74
2023/07/26 01:38:56;;;;;;;10.65;6.55;;;14.20;99.90;;;;;;5050539;28;20021;-74
2023/07/26 01:41:23;;;;;;;9.13;5.82;;;14.20;99.90;;;;;;5050000;28;20025;-74
2023/07/26 01:43:49;;;;;;;11.23;6.20;;;14.20;99.90;;;;;;5050351;28;20025;-74
2023/07/26 01:46:14;;;;;;;13.45;6.75;;;14.20;99.90;;;;;;5049451;28;20044;-74
2023/07/26 01:48:41;;;;;;;11.48;6.78;;;14.20;99.90;;;;;;5050268;28;20391;-73
2023/07/26 01:51:07;;;;;;;13.52;6.38;;;14.20;99.90;;;;;;5049659;28;20033;-74
2023/07/26 01:53:34;;;;;;;14.82;6.75;;;14.10;99.90;;;;;;5050537;28;20427;-74
2023/07/26 01:56:02;;;;;;;10.73;6.30;;;14.10;99.90;;;;;;5048969;28;20029;-74
2023/07/26 01:58:28;;;;;;;10.82;6.03;;;14.10;99.90;;;;;;5050488;28;20025;-74
2023/07/26 02:00:54;;;;;;;9.05;5.65;;;14.10;99.90;;;;;;5050093;28;20351;-74
2023/07/26 02:03:20;;;;;;;12.77;6.63;;;14.00;99.90;;;;;;5048990;28;20039;-74
2023/07/26 02:05:47;;;;;;;9.63;6.13;;;14.00;99.90;;;;;;5049343;28;20078;-74
2023/07/26 02:08:13;;;;;;;11.48;6.30;;;14.00;99.90;;;;;;5049268;28;20103;-74
2023/07/26 02:10:40;;;;;;;7.50;5.15;;;14.00;99.90;;;;;;5049837;28;20033;-74
2023/07/26 02:13:06;;;;;;;13.80;6.22;;;13.90;99.90;;;;;;5047836;28;20086;-74
2023/07/26 02:15:31;;;;;;;12.02;6.35;;;13.90;99.90;;;;;;5048308;28;20029;-74
2023/07/26 02:17:57;;;;;;;11.32;6.22;;;13.90;99.90;;;;;;5048554;28;20418;-74
2023/07/26 02:20:23;;;;;;;11.88;5.60;;;13.90;99.90;;;;;;5049157;28;20029;-74
2023/07/26 02:22:49;;;;;;;10.27;6.15;;;13.90;99.90;;;;;;5049496;28;20033;-74
2023/07/26 02:25:15;;;;;;;10.27;5.63;;;13.90;99.90;;;;;;5049035;28;20435;-74
2023/07/26 02:27:41;;;;;;;11.73;5.95;;;13.90;99.90;;;;;;5049704;28;20061;-73
2023/07/26 02:30:07;;;;;;;11.43;6.45;;;13.90;99.90;;;;;;5049509;28;20430;-74
2023/07/26 02:32:33;;;;;;;10.52;5.95;;;13.90;99.90;;;;;;5053640;28;20401;-74
2023/07/26 02:34:59;;;;;;;9.63;5.18;;;13.90;99.90;;;;;;5053237;28;20036;-74
2023/07/26 02:37:25;;;;;;;11.57;5.53;;;13.80;99.90;;;;;;5052818;28;20083;-74
2023/07/26 02:39:51;;;;;;;8.30;5.75;;;13.80;99.90;;;;;;5053442;28;20074;-74
2023/07/26 02:42:17;;;;;;;8.82;5.07;;;13.90;99.90;;;;;;5052488;28;20025;-74
2023/07/26 02:44:45;;;;;;;10.93;6.00;;;13.80;99.90;;;;;;5053409;28;20112;-74
2023/07/26 02:47:10;;;;;;;8.98;6.05;;;13.80;99.90;;;;;;5052689;28;20156;-74
2023/07/26 02:49:36;;;;;;;10.35;5.88;;;13.80;99.90;;;;;;5053320;28;20123;-74
2023/07/26 02:52:02;;;;;;;9.00;6.07;;;13.70;99.90;;;;;;5053298;28;20035;-74
2023/07/26 02:54:28;;;;;;;9.70;5.50;;;13.70;99.90;;;;;;5050753;28;20075;-74
2023/07/26 02:56:54;;;;;;;8.75;5.93;;;13.70;99.90;;;;;;5053015;28;20033;-74
2023/07/26 02:59:19;;;;;;;8.18;5.28;;;13.70;99.90;;;;;;5052027;28;20033;-74
2023/07/26 03:01:45;;;;;;;7.47;5.18;;;13.60;99.90;;;;;;5053192;28;20037;-73
2023/07/26 03:04:12;;;;;;;9.13;5.40;;;13.70;99.90;;;;;;5052586;28;20082;-74
2023/07/26 03:06:39;;;;;;;8.20;5.43;;;13.70;99.90;;;;;;5052823;28;20098;-73
2023/07/26 03:09:05;;;;;;;8.10;4.88;;;13.70;99.90;;;;;;5051594;28;20056;-74
2023/07/26 03:11:31;;;;;;;9.00;5.32;;;13.60;99.90;;;;;;5052345;28;20500;-73
2023/07/26 03:13:57;;;;;;;8.40;5.25;;;13.70;99.90;;;;;;5052800;28;20032;-73
2023/07/26 03:16:22;;;;;;;9.13;5.30;;;13.60;99.90;;;;;;5051820;28;20059;-73
2023/07/26 03:18:48;;;;;;;9.93;5.88;;;13.60;99.90;;;;;;5052561;28;20146;-73
2023/07/26 03:21:14;;;;;;;8.77;5.22;;;13.60;99.90;;;;;;5052085;28;20477;-74
2023/07/26 03:23:40;;;;;;;7.50;4.68;;;13.60;99.90;;;;;;5052585;28;20032;-73
2023/07/26 03:26:06;;;;;;;6.72;5.07;;;13.60;99.90;;;;;;5052427;28;20104;-74
2023/07/26 03:28:31;;;;;;;8.57;5.43;;;13.60;99.90;;;;;;5050425;28;20470;-74
2023/07/26 03:30:57;;;;;;;11.27;5.45;;;13.50;99.90;;;;;;5052151;28;20107;-74
2023/07/26 03:33:24;;;;;;;8.65;5.55;;;13.40;99.90;;;;;;5052063;28;20476;-73
2023/07/26 03:35:51;;;;;;;9.95;6.28;;;13.40;99.90;;;;;;5052841;28;20075;-74
2023/07/26 03:38:17;;;;;;;9.80;5.53;;;13.30;99.90;;;;;;5051792;28;20021;-73
2023/07/26 03:40:42;;;;;;;11.50;6.10;;;13.30;99.90;;;;;;5052332;28;20141;-73
2023/07/26 03:43:08;;;;;;;11.63;5.20;;;13.20;99.90;;;;;;5051715;28;20025;-74
2023/07/26 03:45:34;;;;;;;10.20;5.63;;;13.10;99.90;;;;;;5052022;28;20064;-73
2023/07/26 03:48:00;;;;;;;7.90;5.72;;;13.10;99.90;;;;;;5052348;28;20035;-73
2023/07/26 03:50:26;;;;;;;11.07;6.00;;;13.00;99.90;;;;;;5051583;28;20029;-73
2023/07/26 03:52:52;;;;;;;9.93;5.72;;;12.90;99.90;;;;;;5051868;28;20040;-73
2023/07/26 03:55:17;;;;;;;12.98;6.00;;;12.90;99.90;;;;;;5051099;28;20109;-73
2023/07/26 03:57:44;;;;;;;10.35;5.32;;;12.80;99.90;;;;;;5050797;28;20032;-73
2023/07/26 04:00:10;;;;;;;11.73;6.25;;;12.70;99.90;;;;;;5051446;28;20044;-74
2023/07/26 04:02:36;;;;;;;9.98;5.97;;;12.70;99.90;;;;;;5051442;28;20017;-73
2023/07/26 04:05:02;;;;;;;11.43;6.43;;;12.70;99.90;;;;;;5051762;28;20025;-73
2023/07/26 04:07:27;;;;;;;9.02;5.82;;;12.70;99.90;;;;;;5051254;28;20032;-73
2023/07/26 04:09:53;;;;;;;10.98;5.78;;;12.60;99.90;;;;;;5051508;28;20033;-73
2023/07/26 04:12:19;;;;;;;10.35;6.38;;;12.60;99.90;;;;;;5051162;28;20119;-73
2023/07/26 04:14:45;;;;;;;8.40;5.80;;;12.60;99.90;;;;;;5051718;28;20075;-73
2023/07/26 04:17:10;;;;;;;11.48;6.18;;;12.60;99.90;;;;;;5051046;28;20342;-74
2023/07/26 04:19:36;;;;;;;11.40;6.07;;;12.50;99.90;;;;;;5051781;28;20033;-73
2023/07/26 04:22:02;;;;;;;9.32;5.95;;;12.50;99.90;;;;;;5051462;28;20033;-73
2023/07/26 04:24:28;;;;;;;10.43;5.78;;;12.50;99.90;;;;;;5049600;28;20024;-74
2023/07/26 04:26:54;;;;;;;9.73;6.07;;;12.60;99.90;;;;;;5051398;28;20071;-74
2023/07/26 04:29:20;;;;;;;10.20;5.75;;;12.50;99.90;;;;;;5050459;28;20049;-74
2023/07/26 04:31:45;;;;;;;8.55;5.45;;;12.60;99.90;;;;;;5051152;28;20062;-74
2023/07/26 04:34:18;;;;;;;8.40;5.53;;;12.50;99.90;;;;;;5049380;28;20142;-74
2023/07/26 04:36:44;;;;;;;10.65;5.82;;;12.50;99.90;;;;;;5050077;28;20553;-73
2023/07/26 04:39:09;;;;;;;11.10;5.32;;;12.60;99.90;;;;;;5051092;28;20132;-73
2023/07/26 04:41:35;;;;;;;9.45;6.35;;;12.60;99.90;;;;;;5050484;28;20486;-74
2023/07/26 04:44:01;;;;;;;10.02;5.43;;;12.60;99.90;;;;;;5050886;28;20033;-73
2023/07/26 04:46:27;;;;;;;11.63;5.95;;;12.60;99.90;;;;;;5050566;28;20029;-74
2023/07/26 04:48:52;;;;;;;10.07;6.38;;;12.50;99.90;;;;;;5051067;28;20029;-73
2023/07/26 04:51:18;;;;;;;10.52;6.45;;;12.50;99.90;;;;;;5050242;28;20048;-75
2023/07/26 04:53:44;;;;;;;12.23;6.88;;;12.50;99.90;;;;;;5050128;28;20029;-73
2023/07/26 04:56:10;;;;;;;12.85;6.30;;;12.50;99.90;;;;;;5051172;28;20033;-73
2023/07/26 04:58:35;;;;;;;11.25;5.55;;;12.40;99.90;;;;;;5050177;28;20025;-73
2023/07/26 05:01:01;;;;;;;12.00;5.50;;;12.40;99.90;;;;;;5050929;28;20479;-73
2023/07/26 05:03:27;;;;;;;11.82;6.47;;;12.40;99.90;;;;;;5049840;28;20431;-73
2023/07/26 05:05:53;;;;;;;10.98;6.03;;;12.40;99.90;;;;;;5049296;28;20029;-73
2023/07/26 05:08:20;;;;;;;10.60;6.28;;;12.40;99.90;;;;;;5050104;28;20094;-73
2023/07/26 05:10:52;;;;;;;8.18;5.63;;;12.30;99.90;;;;;;5050465;28;20091;-73
2023/07/26 05:13:22;;;;;;;7.78;5.90;;;12.30;99.90;;;;;;5048666;28;20067;-74
2023/07/26 05:15:48;;;;;;;10.13;6.07;;;12.40;99.90;;;;;;5050654;28;20032;-73
2023/07/26 05:18:14;;;;;;;9.00;6.03;;;12.40;99.90;;;;;;5049905;28;20100;-75
2023/07/26 05:20:41;;;;;;;9.30;5.43;;;12.40;99.90;;;;;;5048720;28;20032;-74
2023/07/26 05:23:08;;;;;;;9.57;6.10;;;12.40;99.90;;;;;;5050216;28;20044;-74
2023/07/26 05:25:33;;;;;;;10.32;5.38;;;12.50;99.90;;;;;;5050098;28;20143;-74
2023/07/26 05:27:59;;;;;;;9.38;6.18;;;12.70;99.90;;;;;;5050117;28;20067;-74
2023/07/26 05:30:25;;;;;;;8.57;5.70;;;12.70;99.90;;;;;;5049692;28;20097;-74
2023/07/26 05:32:51;;;;;;;10.25;5.25;;;12.80;99.90;;;;;;5050309;28;20332;-74
2023/07/26 05:35:17;;;;;;;13.13;6.03;;;13.00;99.90;;;;;;5050088;28;20098;-74
2023/07/26 05:37:43;;;;;;;8.45;5.90;;;13.20;99.90;;;;;;5050551;28;20017;-73
2023/07/26 05:40:09;;;;;;;8.25;5.43;;;13.20;99.90;;;;;;5050289;28;20037;-73
2023/07/26 05:42:36;;;;;;;9.60;4.90;;;13.40;99.90;;;;;;5049778;28;20029;-74
2023/07/26 05:45:01;;;;;;;8.13;4.78;;;13.60;99.90;;;;;;5050368;28;20146;-74
2023/07/26 05:47:28;;;;;;;9.02;4.95;;;13.80;99.90;;;;;;5049657;28;20402;-74
2023/07/26 05:49:54;;;;;;;7.38;4.60;;;13.90;99.90;;;;;;5050059;28;20187;-74
2023/07/26 05:52:20;;;;;;;8.50;4.53;;;14.00;99.90;;;;;;5049405;28;20121;-74
2023/07/26 05:54:46;;;;;;;11.18;5.38;;;14.00;99.90;;;;;;5050275;28;20477;-75
2023/07/26 05:57:11;;;;;;;8.75;4.90;;;14.10;99.90;;;;;;5015780;28;20059;-74
2023/07/26 05:59:37;;;;;;;9.63;4.85;;;14.30;99.90;;;;;;5049342;28;20063;-74
2023/07/26 06:02:03;;;;;;;9.13;4.45;;;14.30;99.90;;;;;;5049972;28;20426;-74
2023/07/26 06:04:29;;;;;;;8.23;4.43;;;14.40;99.90;;;;;;5050587;28;20399;-74
2023/07/26 06:06:55;;;;;;;6.03;4.32;;;14.60;99.90;;;;;;5054307;28;20025;-74
2023/07/26 06:09:22;;;;;;;8.40;4.55;;;14.60;99.90;;;;;;5053873;28;20040;-75
2023/07/26 06:11:48;;;;;;;5.30;4.05;;;14.70;99.90;;;;;;5054312;28;20378;-74
2023/07/26 06:14:14;;;;;;;6.60;3.80;;;14.80;99.90;;;;;;5053883;28;20021;-74
2023/07/26 06:16:40;;;;;;;9.98;4.07;;;15.00;99.90;;;;;;5053637;28;20112;-74
2023/07/26 06:19:06;;;;;;;7.47;3.97;;;15.10;99.90;;;;;;5053613;28;20486;-74
2023/07/26 06:21:33;;;;;;;8.48;3.70;;;15.20;99.90;;;;;;5053294;28;20108;-75
2023/07/26 06:23:59;;;;;;;7.25;4.60;;;15.40;99.90;;;;;;5054160;28;20032;-74
2023/07/26 06:26:25;;;;;;;6.28;4.20;;;15.50;99.90;;;;;;5053414;28;20029;-75
2023/07/26 06:28:51;;;;;;;6.13;3.83;;;15.60;99.90;;;;;;5053980;28;20182;-74
2023/07/26 06:31:17;;;;;;;5.68;3.97;;;15.80;99.90;;;;;;5053743;28;20025;-74
2023/07/26 06:33:42;;;;;;;6.88;3.63;;;15.90;99.90;;;;;;5053368;28;20025;-74
2023/07/26 06:36:08;;;;;;;6.43;3.22;;;16.00;99.90;;;;;;5053749;28;20025;-74
2023/07/26 06:38:34;;;;;;;8.05;3.90;;;16.10;99.90;;;;;;5053281;28;20108;-74
2023/07/26 06:41:00;;;;;;;6.55;3.72;;;16.20;99.90;;;;;;5053716;28;20486;-74
2023/07/26 06:43:26;;;;;;;8.30;4.00;;;16.30;99.90;;;;;;5053294;28;20036;-75
2023/07/26 06:45:52;;;;;;;5.95;3.20;;;16.30;99.90;;;;;;5052090;28;20032;-74
2023/07/26 06:48:19;;;;;;;5.78;2.95;;;16.40;99.90;;;;;;5052930;28;20416;-74
2023/07/26 06:50:45;;;;;;;5.95;3.47;;;16.40;99.90;;;;;;5052733;28;20053;-74
2023/07/26 06:53:11;;;;;;;5.13;2.90;;;16.40;99.90;;;;;;5051703;28;20383;-74
2023/07/26 06:55:38;;;;;;;7.15;2.75;;;16.50;99.90;;;;;;5052343;28;20029;-74
2023/07/26 06:58:04;;;;;;;4.45;2.10;;;16.70;99.90;;;;;;5053323;28;20057;-74
2023/07/26 07:00:30;;;;;;;3.72;2.10;;;17.00;99.90;;;;;;5052349;28;20070;-76
2023/07/26 07:03:01;;;;;;;6.07;2.40;;;17.20;99.90;;;;;;5052822;28;20063;-75
2023/07/26 07:05:28;;;;;;;4.22;1.90;;;17.40;99.90;;;;;;5052420;28;20031;-76
2023/07/26 07:07:54;;;;;;;4.18;1.95;;;17.50;99.90;;;;;;5053405;28;20131;-75
2023/07/26 07:10:21;;;;;;;1.73;1.23;;;17.60;99.90;;;;;;5052812;28;20113;-76
2023/07/26 07:12:48;;;;;;;6.95;1.90;;;17.60;99.90;;;;;;5051072;28;20490;-76
2023/07/26 07:15:14;;;;;;;4.22;2.53;;;17.70;99.90;;;;;;5050719;28;20513;-76
2023/07/26 07:17:40;;;;;;;2.72;1.48;;;17.70;99.90;;;;;;5051430;28;20025;-75
2023/07/26 07:20:07;;;;;;;3.00;1.90;;;17.70;99.90;;;;;;5052303;28;20032;-75
2023/07/26 07:22:33;;;;;;;2.60;1.90;;;17.70;99.90;;;;;;5051731;28;20029;-75
2023/07/26 07:24:59;;;;;;;2.70;1.58;;;17.70;99.90;;;;;;5052037;28;20386;-75
2023/07/26 07:27:25;;;;;;;3.58;1.65;;;17.70;99.90;;;;;;5051425;28;20103;-76
2023/07/26 07:29:51;;;;;;;3.13;1.60;;;17.70;99.90;;;;;;5051954;28;20093;-75
2023/07/26 07:32:18;;;;;;;1.92;1.40;;;17.60;99.90;;;;;;5052492;28;20048;-75
2023/07/26 07:34:45;;;;;;;4.75;2.25;;;17.60;99.90;;;;;;5051467;28;20033;-76
2023/07/26 07:37:10;;;;;;;6.20;2.22;;;17.50;99.90;;;;;;5052469;28;20029;-75
2023/07/26 07:39:36;;;;;;;2.97;2.00;;;17.40;99.90;;;;;;5051676;28;20037;-75
2023/07/26 07:42:02;;;;;;;3.50;2.35;;;17.40;99.90;;;;;;5052684;28;20025;-75
2023/07/26 07:44:29;;;;;;;8.80;3.30;;;17.30;99.90;;;;;;5052038;28;20032;-75
2023/07/26 07:46:55;;;;;;;5.93;3.53;;;17.00;99.90;;;;;;5051835;28;20260;-75
2023/07/26 07:49:21;;;;;;;3.78;2.60;;;16.90;99.90;;;;;;5051993;28;20524;-75
2023/07/26 07:51:47;;;;;;;4.65;2.95;;;16.80;99.90;;;;;;5051235;28;20177;-75
2023/07/26 07:54:13;;;;;;;5.57;2.67;;;16.70;99.90;;;;;;5050610;28;20169;-75
2023/07/26 07:56:39;;;;;;;5.43;2.92;;;16.70;99.90;;;;;;5051613;28;20351;-76
2023/07/26 07:59:06;;;;;;;8.15;3.13;;;16.70;99.90;;;;;;5051636;28;20120;-77
2023/07/26 08:01:32;;;;;;;4.70;2.80;;;16.70;99.90;;;;;;5051440;28;20129;-75
2023/07/26 08:04:02;;;;;;;7.22;3.08;;;16.70;99.90;;;;;;5051550;28;20165;-75
2023/07/26 08:06:28;;;;;;;7.82;3.42;;;16.80;99.90;;;;;;5051066;28;20423;-74
2023/07/26 08:08:54;;;;;;;5.15;3.38;;;16.80;99.90;;;;;;5051519;28;20024;-73
2023/07/26 08:11:20;;;;;;;4.13;2.92;;;16.80;99.90;;;;;;5051386;28;20382;-74
2023/07/26 08:13:46;;;;;;;3.70;2.60;;;16.80;99.90;;;;;;5049423;28;20571;-75
2023/07/26 08:16:12;;;;;;;5.50;2.58;;;16.80;99.90;;;;;;5051244;28;20132;-74
2023/07/26 08:18:38;;;;;;;5.10;2.83;;;16.80;99.90;;;;;;5050542;28;20099;-75
2023/07/26 08:21:04;;;;;;;5.35;3.05;;;16.80;99.90;;;;;;5049118;28;20040;-76
2023/07/26 08:23:31;;;;;;;3.70;2.63;;;16.80;99.90;;;;;;5049048;28;20032;-74
2023/07/26 08:26:03;;;;;;;4.15;2.67;;;16.80;99.90;;;;;;5050419;28;20033;-74
2023/07/26 08:28:29;;;;;;;3.17;2.10;;;16.80;99.90;;;;;;5050126;28;20044;-75
2023/07/26 08:30:54;;;;;;;3.92;2.40;;;16.80;99.90;;;;;;5050672;28;20079;-75
2023/07/26 08:33:20;;;;;;;3.65;2.20;;;16.90;99.90;;;;;;5050840;28;20144;-74
2023/07/26 08:35:47;;;;;;;5.28;2.25;;;17.00;99.90;;;;;;5049826;28;20048;-74
2023/07/26 08:38:12;;;;;;;2.70;2.28;;;17.10;99.90;;;;;;5050579;28;20033;-74
2023/07/26 08:40:47;;;;;;;3.15;2.05;;;17.20;99.90;;;;;;5049976;28;20116;-74
2023/07/26 08:43:19;;;;;;;3.85;1.88;;;17.30;99.90;;;;;;5050592;28;20029;-74
2023/07/26 08:45:45;;;;;;;4.65;2.30;;;17.30;99.90;;;;;;5049770;28;20759;-75
2023/07/26 08:48:12;;;;;;;2.70;1.58;;;17.40;99.90;;;;;;5050881;28;20108;-74
2023/07/26 08:50:41;;;;;;;2.53;2.00;;;17.40;99.90;;;;;;5049755;28;20029;-74
2023/07/26 08:53:07;;;;;;;4.50;2.42;;;17.50;99.90;;;;;;5050673;28;20078;-74
2023/07/26 08:55:34;;;;;;;5.13;1.98;;;17.40;99.90;;;;;;5048244;28;20031;-74
2023/07/26 08:58:00;;;;;;;2.83;1.92;;;17.40;99.90;;;;;;5050099;28;20043;-76
2023/07/26 09:00:29;;;;;;;2.20;1.70;;;17.50;99.90;;;;;;5050470;28;20509;-75
2023/07/26 09:02:57;;;;;;;3.67;1.92;;;17.40;99.90;;;;;;5050054;28;20467;-74
2023/07/26 09:05:23;;;;;;;5.95;2.42;;;17.40;99.90;;;;;;5049968;28;20108;-74
2023/07/26 09:07:51;;;;;;;2.83;1.80;;;17.40;99.90;;;;;;5047749;28;20048;-76
2023/07/26 09:10:28;;;;;;;4.05;2.10;;;17.30;99.90;;;;;;5049628;28;20032;-75
2023/07/26 09:13:11;;;;;;;2.45;1.88;;;17.30;99.90;;;;;;5049753;28;20032;-76
2023/07/26 09:15:37;;;;;;;4.63;2.40;;;17.30;99.90;;;;;;5049606;28;20029;-75
2023/07/26 09:18:04;;;;;;;2.17;1.90;;;17.20;99.90;;;;;;5049505;28;20094;-75
2023/07/26 09:20:31;;;;;;;3.78;2.28;;;17.20;99.90;;;;;;5048986;28;20033;-76
2023/07/26 09:23:09;;;;;;;4.25;2.33;;;17.20;99.90;;;;;;5050130;28;20017;-75
2023/07/26 09:25:40;;;;;;;4.88;2.10;;;17.20;99.90;;;;;;5049926;28;20024;-75
2023/07/26 09:28:10;;;;;;;4.95;2.10;;;17.20;99.90;;;;;;5049579;28;20049;-75
2023/07/26 09:30:42;;;;;;;3.72;2.60;;;17.30;99.90;;;;;;5049551;28;20032;-75
2023/07/26 09:33:09;;;;;;;3.58;2.30;;;17.30;99.90;;;;;;5049381;28;20025;-75
2023/07/26 09:35:48;;;;;;;3.22;2.17;;;17.20;99.90;;;;;;5049580;28;20021;-74
2023/07/26 09:38:22;;;;;;;3.95;2.22;;;17.20;99.90;;;;;;5048945;28;20170;-76
2023/07/26 09:40:48;;;;;;;5.15;2.28;;;17.30;99.90;;;;;;5048084;28;20097;-76
2023/07/26 09:43:27;;;;;;;4.50;2.20;;;17.30;99.90;;;;;;5048897;28;20112;-74
2023/07/26 09:45:59;;;;;;;5.80;2.80;;;17.10;99.90;;;;;;5048915;28;20021;-74
2023/07/26 09:48:25;;;;;;;3.92;3.00;;;17.10;99.90;;;;;;5047080;28;20068;-75
2023/07/26 09:50:52;;;;;;;4.32;2.75;;;17.10;99.90;;;;;;5048033;28;20102;-75
2023/07/26 09:53:21;;;;;;;3.10;2.40;;;17.10;99.90;;;;;;5048834;28;20021;-74
2023/07/26 09:55:47;;;;;;;4.75;2.70;;;17.20;99.90;;;;;;5048063;28;20026;-74
2023/07/26 09:58:13;;;;;;;5.68;2.80;;;17.20;99.90;;;;;;5048674;28;20113;-74
2023/07/26 10:00:39;;;;;;;3.88;2.70;;;17.20;99.90;;;;;;5048340;28;20037;-76
2023/07/26 10:03:08;;;;;;;3.60;2.25;;;17.30;99.90;;;;;;5048751;28;20064;-75
2023/07/26 10:05:44;;;;;;;4.47;2.30;;;17.30;99.90;;;;;;5048081;28;20562;-74
2023/07/26 10:08:12;;;;;;;4.55;2.72;;;17.40;99.90;;;;;;5048995;28;20114;-75
2023/07/26 10:10:37;;;;;;;3.45;2.65;;;17.40;99.90;;;;;;5048320;28;20470;-74
2023/07/26 10:13:05;;;;;;;2.25;2.05;;;17.40;99.90;;;;;;5048602;28;20151;-74
2023/07/26 10:15:31;;;;;;;3.00;2.20;;;17.40;99.90;;;;;;5049336;28;20029;-76
2023/07/26 10:17:58;;;;;;;6.57;3.20;;;17.40;99.90;;;;;;5049973;28;20021;-73
2023/07/26 10:20:24;;;;;;;3.63;2.47;;;17.40;99.90;;;;;;5049867;28;20562;-75
2023/07/26 10:22:51;;;;;;;3.35;2.90;;;17.50;99.90;;;;;;5049412;28;20304;-73
2023/07/26 10:25:17;;;;;;;3.05;2.75;;;17.50;99.90;;;;;;5050553;28;20021;-82
2023/07/26 10:27:44;;;;;;;3.60;2.60;;;17.60;99.90;;;;;;5049369;28;20053;-80
2023/07/26 10:30:11;;;;;;;2.97;2.13;;;17.60;99.90;;;;;;5050704;28;20024;-87
2023/07/26 10:32:51;;;;;;;4.03;2.35;;;17.70;99.90;;;;;;5049671;28;20037;-77
2023/07/26 10:35:31;;;;;;;5.20;2.78;;;17.80;99.90;;;;;;5045903;28;20032;-78
2023/07/26 10:37:59;;;;;;;4.40;2.05;;;17.90;99.90;;;;;;5048983;28;20040;-78
2023/07/26 10:40:39;;;;;;;2.17;1.73;;;18.00;99.90;;;;;;5049542;28;20037;-79
2023/07/26 10:43:20;;;;;;;2.83;2.05;;;18.00;99.90;;;;;;5049239;28;20029;-78
2023/07/26 10:45:47;;;;;;;2.30;1.45;;;18.10;99.90;;;;;;5049062;28;20025;-78
2023/07/26 10:48:26;;;;;;;2.85;1.52;;;18.10;99.90;;;;;;5048992;28;20029;-75
2023/07/26 10:50:58;;;;;;;4.63;1.63;;;18.20;99.90;;;;;;5048093;28;20381;-75
2023/07/26 10:53:37;;;;;;;3.37;1.20;;;18.20;99.90;;;;;;5052699;28;20491;-75
2023/07/26 10:56:18;;;;;;;2.30;0.90;;;18.30;99.90;;;;;;5052509;28;20108;-75
2023/07/26 10:58:54;;;;;;;0.80;0.80;;;18.30;99.90;;;;;;5051787;28;20052;-75
2023/07/26 11:01:44;;;;;;;2.05;0.82;;;18.40;99.90;;;;;;5052712;28;20449;-76
2023/07/26 11:04:18;;;;;;;1.77;1.20;;;18.50;99.90;;;;;;5052434;28;20087;-76
2023/07/26 11:07:05;;;;;;;3.50;1.17;;;18.60;99.90;;;;;;5052676;28;20029;-75
2023/07/26 11:09:33;;;;;;;1.42;1.10;;;18.60;99.90;;;;;;5050630;28;20028;-76
2023/07/26 11:12:03;;;;;;;1.77;1.10;;;18.40;99.90;;;;;;5051962;28;20025;-75
2023/07/26 11:14:31;;;;;;;2.83;0.90;;;18.50;99.90;;;;;;5052022;28;20040;-78
2023/07/26 11:16:59;;;;;;;4.10;1.10;;;18.40;99.90;;;;;;5053423;28;20033;-78
2023/07/26 11:19:27;;;;;;;3.97;1.35;;;18.40;99.90;;;;;;5052488;28;20045;-77
2023/07/26 11:22:01;;;;;;;1.02;0.80;;;18.40;99.90;;;;;;5051622;28;20471;-80
2023/07/26 11:24:28;;;;;;;4.50;1.20;;;18.40;99.90;;;;;;5051198;28;20108;-84
2023/07/26 11:26:53;;;;;;;2.13;0.88;;;18.30;99.90;;;;;;5052483;28;20033;-85
2023/07/26 11:29:20;;;;;;;2.85;0.88;;;18.30;99.90;;;;;;5053279;28;20056;-85
2023/07/26 11:31:48;;;;;;;1.25;0.80;;;18.20;99.90;;;;;;5052090;28;20482;-83
2023/07/26 11:34:19;;;;;;;1.95;0.60;;;18.30;99.90;;;;;;5053347;28;20021;-83
2023/07/26 11:36:45;;;;;;;0.70;0.70;;;18.30;99.90;;;;;;5051762;28;20154;-79
2023/07/26 11:39:25;;;;;;;2.55;0.90;;;18.50;99.90;;;;;;5052701;28;20036;-79
2023/07/26 11:41:52;;;;;;;3.28;0.60;;;18.50;99.90;;;;;;5051553;28;20083;-80
2023/07/26 11:44:22;;;;;;;3.03;0.70;;;18.60;99.90;;;;;;5052632;28;20103;-82
2023/07/26 11:46:48;;;;;;;0.50;0.30;;;18.60;99.90;;;;;;5051218;28;20112;-77
2023/07/26 11:49:22;;;;;;;1.63;0.60;;;18.60;99.90;;;;;;5052827;28;20036;-74
2023/07/26 11:51:49;;;;;;;0.40;0.40;;;18.60;99.90;;;;;;5050754;28;20035;-77
2023/07/26 11:54:15;;;;;;;2.08;0.60;;;18.60;99.90;;;;;;5052897;28;20033;-81
2023/07/26 11:56:41;;;;;;;0.52;0.30;;;18.60;99.90;;;;;;5052503;28;20501;-80
2023/07/26 11:59:11;;;;;;;0.30;0.30;;;18.60;99.90;;;;;;5052790;28;20074;-80
2023/07/26 12:01:38;;;;;;;0.50;0.40;;;18.60;99.90;;;;;;5052044;28;20123;-80
2023/07/26 12:04:10;;;;;;;1.25;0.30;;;18.50;99.90;;;;;;5052189;28;20028;-78
2023/07/26 12:06:36;;;;;;;0.60;0.30;;;18.50;99.90;;;;;;5052197;28;20029;-78
2023/07/26 12:09:09;;;;;;;1.88;0.45;;;18.50;99.90;;;;;;5050901;28;20037;-81
2023/07/26 12:11:37;;;;;;;1.45;0.40;;;18.50;99.90;;;;;;5051889;28;20036;-78
2023/07/26 12:14:03;;;;;;;0.38;0.35;;;18.50;99.90;;;;;;5052053;28;20029;-79
2023/07/26 12:16:30;;;;;;;0.82;0.40;;;18.50;99.90;;;;;;5051889;28;20047;-83
2023/07/26 12:19:00;;;;;;;2.25;0.40;;;18.50;99.90;;;;;;5051890;28;20124;-77
2023/07/26 12:21:27;;;;;;;1.65;0.88;;;18.50;99.90;;;;;;5051599;28;20037;-79
2023/07/26 12:23:55;;;;;;;1.17;0.38;;;18.60;99.90;;;;;;5051604;28;20033;-78
2023/07/26 12:26:25;;;;;;;0.77;0.40;;;18.60;99.90;;;;;;5052228;28;20481;-78
2023/07/26 12:28:53;;;;;;;0.55;0.30;;;18.60;99.90;;;;;;5051215;28;20040;-79
2023/07/26 12:31:27;;;;;;;0.70;0.30;;;18.50;99.90;;;;;;5052760;28;20118;-79
2023/07/26 12:34:06;;;;;;;1.50;0.50;;;18.60;99.90;;;;;;5051807;28;20056;-79
2023/07/26 12:36:40;;;;;;;3.08;0.70;;;18.60;99.90;;;;;;5051597;28;20021;-84
2023/07/26 12:39:08;;;;;;;1.73;0.70;;;18.60;99.90;;;;;;5051219;28;20120;-78
2023/07/26 12:41:35;;;;;;;1.55;0.73;;;18.50;99.90;;;;;;5051268;28;20036;-80
2023/07/26 12:44:05;;;;;;;2.85;1.00;;;18.60;99.90;;;;;;5051575;28;20029;-81